aviador You're here:

VOHY Decoded Metar

HYDERABAD in INDIA
Report Time2018-01-18 11:30:00
UTC Time2018-01-18 11:48:40
Flight Rules mvfr MVFR
Wind050° at 05 kt
W.Decomp.*RWY 09: 3.9 kt HW 3.1 kt LCW
W.Rank050° ranks 14
Current wind is below 050° avg. (5.2)
Visibility6000 m
Phenomena:N/A
Clouds:N/A
Expected CloudBase > 6,800 ft AGL from Temp-Dew spread
CeilingNone
Temp29°C (ISA +18)
Dew Point12°C (35% RH)
Heat Index28.2°C
AAT27.8°C
QNH1014 hPa
Density Alt3,953 ft
Elevation1,788 ft
Report Wrong Elevation
Raw Report
METAR COR VOHY 181130Z 05005KT 6000 NSC 29/12 Q1014 TEMPO 5000 HZ=####018000079####
SAIN90 VEPT 181100

Extra information for VOHY:More info

Metar Taf Metar & Taf Last 4 Metars F.Rules Stats Wind Profile Meteogram Temp Stats Airport Information Weather charts Add Link Nearby VenuesMetar ALERT Operation Metar Decoded Social comments